Terminal Aerodrome Forecast
Issued by NWS Greer, SC

Home | Current Version | Previous Version | Text Only | Print | Product List | Glossary On
Versions: 1 2 3 4 5 6 7 8 9 10 11 12 13 14 15 16 17 18 19 20 21 22 23 24 25 26 27 28 29 30 31 32 33 34 35 36 37 38 39 40 41 42 43
000
FTUS42 KGSP 030500
TAFCLT
TAF
KCLT 030535Z 0306/0406 23004KT P6SM VCSH SCT060 BKN150
     FM031400 23004KT P6SM FEW050 BKN250
     FM031700 17006KT P6SM BKN050 PROB30 0318/0324 4SM TSRA BKN040CB
     FM040000 16004KT P6SM BKN060=

USA.gov is the U.S. government's official web portal to all federal, state and local government web resources and services.